Time;durP1;ratioP1;P1;durP2;ratioP2;P2;SDS_P1;SDS_P2;PMS_P1;PMS_P2;Temp;Humidity;BMP_temperature;BMP_pressure;BME280_temperature;BME280_humidity;BME280_pressure;Samples;Min_cycle;Max_cycle;Signal;HPM_P1;HPM_P2
2022/10/14 00:00:02;;;;;;;21.80;15.93;;;;;;;-145.23;100.00;58621.06;5015560;28;20602;-52
2022/10/14 00:02:28;;;;;;;15.65;12.88;;;;;;;-145.23;100.00;58621.06;5022647;28;20634;-51
2022/10/14 00:04:55;;;;;;;17.35;13.95;;;;;;;-145.23;100.00;58621.06;5023994;28;20698;-51
2022/10/14 00:07:21;;;;;;;19.43;14.37;;;;;;;-145.23;100.00;58621.06;5022818;28;20228;-52
2022/10/14 00:09:48;;;;;;;21.00;14.10;;;;;;;-145.23;100.00;58621.06;5038316;28;20250;-54
2022/10/14 00:12:16;;;;;;;17.77;13.98;;;;;;;-145.23;100.00;58621.06;5036004;28;20255;-52
2022/10/14 00:14:42;;;;;;;18.10;15.13;;;;;;;-145.23;100.00;58621.06;5032152;28;20807;-53
2022/10/14 00:17:09;;;;;;;17.98;14.70;;;;;;;-145.23;100.00;58621.06;5041070;28;20235;-52
2022/10/14 00:19:35;;;;;;;17.00;13.50;;;;;;;-145.23;100.00;58621.06;5033743;28;20236;-52
2022/10/14 00:22:01;;;;;;;16.95;15.07;;;;;;;-145.23;100.00;58621.06;5034761;28;20728;-53
2022/10/14 00:24:28;;;;;;;19.00;14.23;;;;;;;-145.23;100.00;58621.06;5010867;28;20245;-52
2022/10/14 00:26:54;;;;;;;16.13;13.63;;;;;;;-145.23;100.00;58621.06;5015459;28;20232;-52
2022/10/14 00:29:23;;;;;;;16.20;14.13;;;;;;;-145.23;100.00;58621.06;5018728;28;20248;-52
2022/10/14 00:31:50;;;;;;;15.53;13.77;;;;;;;-145.23;100.00;58621.06;5000222;28;20723;-53
2022/10/14 00:34:17;;;;;;;17.00;14.57;;;;;;;-145.23;100.00;58621.06;5012104;28;20232;-52
2022/10/14 00:36:43;;;;;;;19.17;14.27;;;;;;;-145.23;100.00;58621.06;5028910;28;20233;-52
2022/10/14 00:39:10;;;;;;;18.00;14.50;;;;;;;-145.23;100.00;58621.06;5004869;28;20240;-53
2022/10/14 00:41:37;;;;;;;15.75;13.73;;;;;;;-145.23;100.00;58621.06;5013347;28;20236;-52
2022/10/14 00:44:05;;;;;;;21.57;13.50;;;;;;;-145.23;100.00;58621.06;5005786;28;20268;-52
2022/10/14 00:46:35;;;;;;;14.90;13.43;;;;;;;-145.23;100.00;58621.06;5012905;28;20236;-52
2022/10/14 00:49:04;;;;;;;14.77;12.73;;;;;;;-145.23;100.00;58621.06;4993645;28;20608;-53
2022/10/14 00:51:31;;;;;;;18.10;14.57;;;;;;;-145.23;100.00;58621.06;5000487;28;20242;-53
2022/10/14 00:53:57;;;;;;;16.47;13.73;;;;;;;-145.23;100.00;58621.06;4995693;28;20233;-51
2022/10/14 00:56:27;;;;;;;16.10;14.27;;;;;;;-145.23;100.00;58621.06;5007697;28;20236;-52
2022/10/14 00:58:53;;;;;;;16.63;13.85;;;;;;;-145.23;100.00;58621.06;4992833;28;20233;-51
2022/10/14 01:01:20;;;;;;;17.90;14.00;;;;;;;-145.23;100.00;58621.06;5000903;28;20244;-51
2022/10/14 01:03:48;;;;;;;16.88;14.07;;;;;;;-145.23;100.00;58621.06;5007229;28;20239;-52
2022/10/14 01:06:21;;;;;;;21.40;15.20;;;;;;;-145.23;100.00;58621.06;5013681;28;20656;-52
2022/10/14 01:08:52;;;;;;;18.10;15.40;;;;;;;-145.23;100.00;58621.06;5032963;28;20325;-52
2022/10/14 01:11:24;;;;;;;15.53;13.87;;;;;;;-145.23;100.00;58621.06;5021893;28;20226;-50
2022/10/14 01:13:56;;;;;;;21.57;14.80;;;;;;;-145.23;100.00;58621.06;5032049;28;20259;-50
2022/10/14 01:16:27;;;;;;;18.20;13.50;;;;;;;-145.23;100.00;58621.06;5006981;28;20232;-52
2022/10/14 01:19:07;;;;;;;17.70;14.20;;;;;;;-145.23;100.00;58621.06;5005476;28;20232;-52
2022/10/14 01:21:37;;;;;;;14.97;13.47;;;;;;;-145.23;100.00;58621.06;5026741;28;20240;-52
2022/10/14 01:24:35;;;;;;;16.33;11.93;;;;;;;-145.23;100.00;58621.06;5031599;28;20277;-52
2022/10/14 01:27:21;;;;;;;16.17;13.20;;;;;;;-145.23;100.00;58621.06;5041943;28;20223;-52
2022/10/14 01:30:09;;;;;;;17.67;13.20;;;;;;;-145.23;100.00;58621.06;5039114;28;20698;-52
2022/10/14 01:32:40;;;;;;;16.03;13.07;;;;;;;-145.23;100.00;58621.06;5040815;28;20228;-52
2022/10/14 01:35:11;;;;;;;15.57;13.53;;;;;;;-145.23;100.00;58621.06;5039317;28;20297;-51
2022/10/14 01:37:45;;;;;;;14.90;12.90;;;;;;;-145.23;100.00;58621.06;5044335;28;20236;-52
2022/10/14 01:40:17;;;;;;;16.47;13.10;;;;;;;-145.23;100.00;58621.06;5047070;28;20302;-52
2022/10/14 01:42:44;;;;;;;13.60;12.30;;;;;;;-145.23;100.00;58621.06;5039070;28;20235;-52
2022/10/14 01:45:17;;;;;;;15.13;12.97;;;;;;;-145.23;100.00;58621.06;5044922;28;20235;-52
2022/10/14 01:47:43;;;;;;;15.53;12.93;;;;;;;-145.23;100.00;58621.06;5017819;28;20237;-51
2022/10/14 01:50:13;;;;;;;16.97;13.63;;;;;;;-145.23;100.00;58621.06;5010622;28;20252;-52
2022/10/14 01:52:42;;;;;;;18.17;13.57;;;;;;;-145.23;100.00;58621.06;5017837;28;20251;-52
2022/10/14 01:55:13;;;;;;;14.83;12.90;;;;;;;-145.23;100.00;58621.06;5019882;28;20248;-51
2022/10/14 01:57:41;;;;;;;14.20;12.63;;;;;;;-145.23;100.00;58621.06;5015515;28;20236;-52
2022/10/14 02:00:10;;;;;;;14.17;12.23;;;;;;;-145.23;100.00;58621.06;5023993;28;20234;-52
2022/10/14 02:02:38;;;;;;;16.67;13.30;;;;;;;-145.23;100.00;58621.06;5014155;28;20229;-52
2022/10/14 02:05:08;;;;;;;14.07;12.33;;;;;;;-145.23;100.00;58621.06;5020232;28;20235;-52
2022/10/14 02:07:38;;;;;;;16.10;13.17;;;;;;;-145.23;100.00;58621.06;5023672;28;20232;-51
2022/10/14 02:10:13;;;;;;;15.07;13.23;;;;;;;-145.23;100.00;58621.06;5024297;28;20247;-52
2022/10/14 02:12:48;;;;;;;20.20;15.50;;;;;;;-145.23;100.00;58621.06;5035184;28;20252;-52
2022/10/14 02:15:20;;;;;;;15.63;13.13;;;;;;;-145.23;100.00;58621.06;5021822;28;20626;-51
2022/10/14 02:17:53;;;;;;;15.67;12.93;;;;;;;-145.23;100.00;58621.06;5025781;28;20228;-51
2022/10/14 02:20:23;;;;;;;15.20;12.77;;;;;;;-145.23;100.00;58621.06;5025646;28;20293;-53
2022/10/14 02:22:54;;;;;;;19.60;14.93;;;;;;;-145.23;100.00;58621.06;5020885;28;20327;-52
2022/10/14 02:25:24;;;;;;;18.50;13.70;;;;;;;-145.23;100.00;58621.06;5008120;28;21019;-51
2022/10/14 02:27:52;;;;;;;19.10;15.20;;;;;;;-145.23;100.00;58621.06;5004773;28;20236;-53
2022/10/14 02:30:19;;;;;;;19.87;14.20;;;;;;;-145.23;100.00;58621.06;4991621;28;20238;-52
2022/10/14 02:32:46;;;;;;;17.80;13.67;;;;;;;-145.23;100.00;58621.06;5045094;28;20232;-52
2022/10/14 02:35:16;;;;;;;19.43;16.07;;;;;;;-145.23;100.00;58621.06;5015075;28;20245;-52
2022/10/14 02:37:43;;;;;;;16.00;13.70;;;;;;;-145.23;100.00;58621.06;5024057;28;20238;-52
2022/10/14 02:40:12;;;;;;;18.67;15.33;;;;;;;-145.23;100.00;58621.06;5036723;28;20289;-51
2022/10/14 02:42:38;;;;;;;17.77;14.37;;;;;;;-145.23;100.00;58621.06;5027175;28;20240;-52
2022/10/14 02:45:05;;;;;;;17.57;15.77;;;;;;;-145.23;100.00;58621.06;5016496;28;20239;-51
2022/10/14 02:47:32;;;;;;;17.37;14.27;;;;;;;-145.23;100.00;58621.06;5013854;28;20241;-52
2022/10/14 02:49:59;;;;;;;17.10;15.23;;;;;;;-145.23;100.00;58621.06;5008678;28;20233;-52
2022/10/14 02:52:27;;;;;;;18.80;12.70;;;;;;;-145.23;100.00;58621.06;5013653;28;20719;-52
2022/10/14 02:54:54;;;;;;;17.63;14.47;;;;;;;-145.23;100.00;58621.06;5020232;28;20228;-52
2022/10/14 02:57:23;;;;;;;15.00;13.27;;;;;;;-145.23;100.00;58621.06;5029994;28;20243;-52
2022/10/14 02:59:50;;;;;;;16.97;14.27;;;;;;;-145.23;100.00;58621.06;5027168;28;20235;-52
2022/10/14 03:02:19;;;;;;;18.73;13.60;;;;;;;-145.23;100.00;58621.06;5036406;28;20224;-52
2022/10/14 03:04:45;;;;;;;16.73;13.00;;;;;;;-145.23;100.00;58621.06;4976095;28;1307500;-52
2022/10/14 03:07:12;;;;;;;18.60;12.60;;;;;;;-145.23;100.00;58621.06;5040249;28;20231;-52
2022/10/14 03:09:41;;;;;;;16.33;12.93;;;;;;;-145.23;100.00;58621.06;5032477;28;20243;-52
2022/10/14 03:12:08;;;;;;;16.83;12.87;;;;;;;-145.23;100.00;58621.06;5029591;28;20258;-50
2022/10/14 03:14:35;;;;;;;12.97;11.60;;;;;;;-145.23;100.00;58621.06;5031608;28;20733;-51
2022/10/14 03:17:02;;;;;;;14.27;12.10;;;;;;;-145.23;100.00;58621.06;5019912;28;20227;-50
2022/10/14 03:19:29;;;;;;;14.63;10.63;;;;;;;-145.23;100.00;58621.06;5023270;28;20229;-51
2022/10/14 03:21:56;;;;;;;17.43;13.30;;;;;;;-145.23;100.00;58621.06;5040017;28;20251;-52
2022/10/14 03:24:25;;;;;;;13.40;11.37;;;;;;;-145.23;100.00;58621.06;5036687;28;20238;-51
2022/10/14 03:26:53;;;;;;;12.73;11.23;;;;;;;-145.23;100.00;58621.06;5029130;28;20358;-51
2022/10/14 03:29:20;;;;;;;14.20;10.80;;;;;;;-145.23;100.00;58621.06;5035423;28;20237;-52
2022/10/14 03:31:47;;;;;;;14.83;12.47;;;;;;;-145.23;100.00;58621.06;5057481;28;20299;-52
2022/10/14 03:34:14;;;;;;;12.93;11.63;;;;;;;-145.23;100.00;58621.06;5025459;28;20237;-51
2022/10/14 03:36:41;;;;;;;14.93;12.13;;;;;;;-145.23;100.00;58621.06;5035121;28;20255;-51
2022/10/14 03:39:10;;;;;;;19.13;13.20;;;;;;;-145.23;100.00;58621.06;5021930;28;20228;-51
2022/10/14 03:41:37;;;;;;;15.57;11.73;;;;;;;-145.23;100.00;58621.06;5005725;28;20298;-51
2022/10/14 03:44:05;;;;;;;12.13;10.83;;;;;;;-145.23;100.00;58621.06;5011478;28;20310;-51
2022/10/14 03:46:32;;;;;;;11.83;10.60;;;;;;;-145.23;100.00;58621.06;5013387;28;20236;-51
2022/10/14 03:48:59;;;;;;;16.03;11.60;;;;;;;-145.23;100.00;58621.06;5015235;28;20311;-50
2022/10/14 03:51:26;;;;;;;12.77;11.10;;;;;;;-145.23;100.00;58621.06;5020329;28;20827;-51
2022/10/14 03:53:53;;;;;;;12.80;11.50;;;;;;;-145.23;100.00;58621.06;5031320;28;20680;-51
2022/10/14 03:56:20;;;;;;;15.37;12.13;;;;;;;-145.23;100.00;58621.06;5021759;28;20312;-52
2022/10/14 03:58:46;;;;;;;15.67;12.10;;;;;;;-145.23;100.00;58621.06;5023585;28;20219;-51
2022/10/14 04:01:15;;;;;;;20.80;14.07;;;;;;;-145.23;100.00;58621.06;5024357;28;20252;-52
2022/10/14 04:03:45;;;;;;;16.87;13.63;;;;;;;-145.23;100.00;58621.06;5027956;28;20322;-52
2022/10/14 04:06:12;;;;;;;18.07;13.00;;;;;;;-145.23;100.00;58621.06;5041363;28;20242;-52
2022/10/14 04:08:38;;;;;;;20.60;14.10;;;;;;;-145.23;100.00;58621.06;5048419;28;20228;-52
2022/10/14 04:11:05;;;;;;;15.53;13.13;;;;;;;-145.23;100.00;58621.06;5025929;28;20251;-51
2022/10/14 04:13:32;;;;;;;16.10;14.40;;;;;;;-145.23;100.00;58621.06;5025387;28;20233;-51
2022/10/14 04:16:02;;;;;;;18.33;14.80;;;;;;;-145.23;100.00;58621.06;5017760;28;20381;-51
2022/10/14 04:18:31;;;;;;;17.40;14.30;;;;;;;-145.23;100.00;58621.06;5000124;28;20753;-51
2022/10/14 04:21:00;;;;;;;17.10;14.57;;;;;;;-145.23;100.00;58621.06;5004799;28;20229;-51
2022/10/14 04:23:27;;;;;;;18.60;13.77;;;;;;;-145.23;100.00;58621.06;5011380;28;20274;-53
2022/10/14 04:25:54;;;;;;;15.60;13.30;;;;;;;-145.23;100.00;58621.06;5016967;28;20290;-52
2022/10/14 04:28:20;;;;;;;14.90;13.40;;;;;;;-145.23;100.00;58621.06;5031669;28;20314;-52
2022/10/14 04:30:48;;;;;;;13.43;12.07;;;;;;;-145.23;100.00;58621.06;5028557;28;20282;-52
2022/10/14 04:33:14;;;;;;;13.43;10.97;;;;;;;-145.23;100.00;58621.06;5030492;28;20232;-51
2022/10/14 04:35:42;;;;;;;16.13;13.97;;;;;;;-145.23;100.00;58621.06;5020925;28;20237;-51
2022/10/14 04:38:09;;;;;;;14.20;11.93;;;;;;;-145.23;100.00;58621.06;5009423;28;20239;-51
2022/10/14 04:40:38;;;;;;;12.80;11.27;;;;;;;-145.23;100.00;58621.06;5010217;28;20228;-51
2022/10/14 04:43:05;;;;;;;17.30;13.47;;;;;;;-145.23;100.00;58621.06;5014670;28;20282;-52
2022/10/14 04:45:32;;;;;;;15.20;12.93;;;;;;;-145.23;100.00;58621.06;5013312;28;20237;-51
2022/10/14 04:47:59;;;;;;;16.60;13.17;;;;;;;-145.23;100.00;58621.06;5024231;28;20305;-51
2022/10/14 04:50:26;;;;;;;14.70;12.47;;;;;;;-145.23;100.00;58621.06;5019602;28;20229;-53
2022/10/14 04:52:54;;;;;;;14.20;12.10;;;;;;;-145.23;100.00;58621.06;5014838;28;20225;-51
2022/10/14 04:55:21;;;;;;;19.70;13.23;;;;;;;-145.23;100.00;58621.06;5014984;28;20233;-51
2022/10/14 04:57:47;;;;;;;17.63;14.17;;;;;;;-145.23;100.00;58621.06;5007846;28;20254;-52
2022/10/14 05:00:15;;;;;;;14.90;12.90;;;;;;;-145.23;100.00;58621.06;5035377;28;20233;-51
2022/10/14 05:02:42;;;;;;;13.87;11.90;;;;;;;-145.23;100.00;58621.06;4997841;28;20740;-53
2022/10/14 05:05:13;;;;;;;15.67;12.77;;;;;;;-145.23;100.00;58621.06;5000068;28;20229;-51
2022/10/14 05:07:40;;;;;;;13.60;11.90;;;;;;;-145.23;100.00;58621.06;5005291;28;20260;-51
2022/10/14 05:10:10;;;;;;;14.13;12.53;;;;;;;-145.23;100.00;58621.06;5012320;28;20237;-51
2022/10/14 05:12:37;;;;;;;14.07;12.63;;;;;;;-145.23;100.00;58621.06;5002177;28;20795;-52
2022/10/14 05:15:06;;;;;;;14.87;11.77;;;;;;;-145.23;100.00;58621.06;5004364;28;20248;-52
2022/10/14 05:17:33;;;;;;;15.40;11.43;;;;;;;-145.23;100.00;58621.06;4999884;28;20673;-51
2022/10/14 05:20:00;;;;;;;15.50;12.03;;;;;;;-145.23;100.00;58621.06;5004180;28;20329;-52
2022/10/14 05:22:27;;;;;;;15.70;14.00;;;;;;;-145.23;100.00;58621.06;5001420;28;20256;-52
2022/10/14 05:24:54;;;;;;;14.10;11.97;;;;;;;-145.23;100.00;58621.06;5023403;28;20242;-51
2022/10/14 05:27:22;;;;;;;13.47;11.33;;;;;;;-145.23;100.00;58621.06;5024700;28;20610;-52
2022/10/14 05:29:51;;;;;;;15.57;12.33;;;;;;;-145.23;100.00;58621.06;5012378;28;20316;-52
2022/10/14 05:32:18;;;;;;;13.80;11.63;;;;;;;-145.23;100.00;58621.06;5014557;28;20233;-52
2022/10/14 05:34:45;;;;;;;14.87;13.30;;;;;;;-145.23;100.00;58621.06;5018385;28;20236;-50
2022/10/14 05:37:12;;;;;;;18.00;13.23;;;;;;;-145.23;100.00;58621.06;5012425;28;20282;-52
2022/10/14 05:39:39;;;;;;;18.63;13.33;;;;;;;-145.23;100.00;58621.06;5008437;28;20948;-51
2022/10/14 05:42:06;;;;;;;14.57;12.37;;;;;;;-145.23;100.00;58621.06;5000222;28;20221;-51
2022/10/14 05:44:34;;;;;;;17.63;13.47;;;;;;;-145.23;100.00;58621.06;5006791;28;20315;-52
2022/10/14 05:47:01;;;;;;;16.33;13.53;;;;;;;-145.23;100.00;58621.06;5009902;28;20625;-52
2022/10/14 05:49:28;;;;;;;14.77;11.30;;;;;;;-145.23;100.00;58621.06;5009700;28;20229;-51
2022/10/14 05:51:55;;;;;;;12.80;11.33;;;;;;;-145.23;100.00;58621.06;4999616;28;20245;-52
2022/10/14 05:54:24;;;;;;;14.40;12.23;;;;;;;-145.23;100.00;58621.06;5004350;28;20281;-52
2022/10/14 05:56:52;;;;;;;14.83;11.83;;;;;;;-145.23;100.00;58621.06;5002473;28;20250;-52
2022/10/14 05:59:18;;;;;;;13.80;12.30;;;;;;;-145.23;100.00;58621.06;5025465;28;20238;-52
2022/10/14 06:01:47;;;;;;;13.40;12.00;;;;;;;-145.23;100.00;58621.06;5028436;28;20858;-51
2022/10/14 06:04:17;;;;;;;14.53;12.27;;;;;;;-145.23;100.00;58621.06;5027170;28;20256;-52
2022/10/14 06:06:44;;;;;;;14.77;12.50;;;;;;;-145.23;100.00;58621.06;5025538;28;20258;-53
2022/10/14 06:09:11;;;;;;;14.57;11.83;;;;;;;-145.23;100.00;58621.06;5030148;28;20872;-52
2022/10/14 06:11:39;;;;;;;16.17;13.90;;;;;;;-145.23;100.00;58621.06;5023026;28;20227;-51
2022/10/14 06:14:06;;;;;;;16.53;13.53;;;;;;;-145.23;100.00;58621.06;5026578;28;20606;-52
2022/10/14 06:16:32;;;;;;;16.30;13.77;;;;;;;-145.23;100.00;58621.06;5022220;28;20233;-52
2022/10/14 06:19:01;;;;;;;17.27;12.40;;;;;;;-145.23;100.00;58621.06;5018733;28;20802;-52
2022/10/14 06:21:28;;;;;;;14.75;12.15;;;;;;;-145.23;100.00;58621.06;5025292;28;20237;-51
2022/10/14 06:23:55;;;;;;;13.03;11.47;;;;;;;-145.23;100.00;58621.06;5006903;28;20347;-53
2022/10/14 06:26:22;;;;;;;16.23;13.60;;;;;;;-145.23;100.00;58621.06;5016293;28;20237;-52
2022/10/14 06:28:49;;;;;;;18.93;13.23;;;;;;;-145.23;100.00;58621.06;5010477;28;20229;-51
2022/10/14 06:31:16;;;;;;;16.93;13.67;;;;;;;-145.23;100.00;58621.06;5016342;28;20232;-52
2022/10/14 06:33:43;;;;;;;15.63;13.07;;;;;;;-145.23;100.00;58621.06;5020804;28;20766;-52
2022/10/14 06:36:12;;;;;;;14.63;13.13;;;;;;;-145.23;100.00;58621.06;5013805;28;20257;-52
2022/10/14 06:38:39;;;;;;;15.53;13.87;;;;;;;-145.23;100.00;58621.06;5015179;28;20364;-52
2022/10/14 06:41:05;;;;;;;15.90;13.27;;;;;;;-145.23;100.00;58621.06;5021603;28;20237;-52
2022/10/14 06:43:34;;;;;;;16.60;13.97;;;;;;;-145.23;100.00;58621.06;5026976;28;20283;-52
2022/10/14 06:46:02;;;;;;;18.10;12.07;;;;;;;-145.23;100.00;58621.06;5019932;28;20237;-51
2022/10/14 06:48:29;;;;;;;18.70;13.27;;;;;;;-145.23;100.00;58621.06;5026816;28;20229;-51
2022/10/14 06:50:58;;;;;;;20.70;13.80;;;;;;;-145.23;100.00;58621.06;5019582;28;20244;-52
2022/10/14 06:53:26;;;;;;;15.77;12.17;;;;;;;-145.23;100.00;58621.06;5026336;28;20620;-52
2022/10/14 06:55:58;;;;;;;14.70;11.93;;;;;;;-145.23;100.00;58621.06;5017186;28;20220;-51
2022/10/14 06:58:25;;;;;;;16.50;12.82;;;;;;;-145.23;100.00;58621.06;5023055;28;20232;-52
2022/10/14 07:00:52;;;;;;;14.95;12.38;;;;;;;-145.23;100.00;58621.06;5022882;28;20229;-51
2022/10/14 07:03:19;;;;;;;15.63;13.00;;;;;;;-145.23;100.00;58621.06;5020177;28;20224;-51
2022/10/14 07:05:46;;;;;;;16.52;12.52;;;;;;;-145.23;100.00;58621.06;5013167;28;20719;-52
2022/10/14 07:08:13;;;;;;;18.00;14.23;;;;;;;-145.23;100.00;58621.06;5011236;28;20306;-52
2022/10/14 07:10:41;;;;;;;21.07;13.10;;;;;;;-145.23;100.00;58621.06;5007056;28;20221;-52
2022/10/14 07:13:08;;;;;;;17.13;14.73;;;;;;;-145.23;100.00;58621.06;5003918;28;20248;-52
2022/10/14 07:15:35;;;;;;;19.33;14.67;;;;;;;-145.23;100.00;58621.06;5006433;28;20310;-51
2022/10/14 07:18:02;;;;;;;20.10;13.60;;;;;;;-145.23;100.00;58621.06;5005598;28;20790;-51
2022/10/14 07:20:29;;;;;;;17.37;14.30;;;;;;;-145.23;100.00;58621.06;5002624;28;20328;-52
2022/10/14 07:22:56;;;;;;;17.03;13.53;;;;;;;-145.23;100.00;58621.06;5005488;28;20949;-51
2022/10/14 07:25:23;;;;;;;17.17;14.23;;;;;;;-145.23;100.00;58621.06;4999607;28;20276;-53
2022/10/14 07:27:53;;;;;;;17.60;13.20;;;;;;;-145.23;100.00;58621.06;4999892;28;20236;-51
2022/10/14 07:30:20;;;;;;;14.67;12.07;;;;;;;-145.23;100.00;58621.06;4996818;28;20347;-52
2022/10/14 07:32:47;;;;;;;16.77;14.13;;;;;;;-145.23;100.00;58621.06;4999585;28;20239;-52
2022/10/14 07:35:14;;;;;;;16.77;13.23;;;;;;;-145.23;100.00;58621.06;4997158;28;20243;-52
2022/10/14 07:37:41;;;;;;;16.85;13.30;;;;;;;-145.23;100.00;58621.06;5009741;28;20252;-52
2022/10/14 07:40:09;;;;;;;15.98;13.93;;;;;;;-145.23;100.00;58621.06;5018355;28;20237;-52
2022/10/14 07:42:36;;;;;;;18.73;14.63;;;;;;;-145.23;100.00;58621.06;5029404;28;20228;-52
2022/10/14 07:45:06;;;;;;;18.00;13.48;;;;;;;-145.23;100.00;58621.06;5006562;28;20233;-52
2022/10/14 07:47:32;;;;;;;19.97;15.20;;;;;;;-145.23;100.00;58621.06;4998484;28;20921;-52
2022/10/14 07:50:00;;;;;;;18.92;15.30;;;;;;;-145.23;100.00;58621.06;5017433;28;20228;-52
2022/10/14 07:52:27;;;;;;;17.20;13.20;;;;;;;-145.23;100.00;58621.06;5007225;28;20282;-52
2022/10/14 07:54:54;;;;;;;19.80;13.98;;;;;;;-145.23;100.00;58621.06;5014466;28;20232;-52
2022/10/14 07:57:22;;;;;;;19.30;14.77;;;;;;;-145.23;100.00;58621.06;5007373;28;20232;-52
2022/10/14 07:59:48;;;;;;;21.47;15.93;;;;;;;-145.23;100.00;58621.06;5007922;28;20272;-52
2022/10/14 08:02:16;;;;;;;15.25;12.80;;;;;;;-145.23;100.00;58621.06;5003326;28;20234;-52
2022/10/14 08:04:43;;;;;;;20.27;13.50;;;;;;;-145.23;100.00;58621.06;5009770;28;20255;-52
2022/10/14 08:07:13;;;;;;;17.20;14.50;;;;;;;-145.23;100.00;58621.06;5008910;28;20278;-52
2022/10/14 08:09:39;;;;;;;20.60;13.85;;;;;;;-145.23;100.00;58621.06;5029568;28;20309;-52
2022/10/14 08:12:07;;;;;;;19.38;14.63;;;;;;;-145.23;100.00;58621.06;5029178;28;20240;-52
2022/10/14 08:14:33;;;;;;;15.32;13.50;;;;;;;-145.23;100.00;58621.06;5030684;28;20237;-52
2022/10/14 08:17:00;;;;;;;16.52;14.07;;;;;;;-145.23;100.00;58621.06;5028115;28;20240;-52
2022/10/14 08:19:28;;;;;;;16.50;14.30;;;;;;;-145.23;100.00;58621.06;5017431;28;20324;-53
2022/10/14 08:21:55;;;;;;;19.27;13.93;;;;;;;-145.23;100.00;58621.06;5005588;28;20311;-53
2022/10/14 08:24:22;;;;;;;18.55;15.07;;;;;;;-145.23;100.00;58621.06;5021527;28;20431;-52
2022/10/14 08:26:50;;;;;;;19.65;14.90;;;;;;;-145.23;100.00;58621.06;5017999;28;20334;-52
2022/10/14 08:29:17;;;;;;;21.00;15.48;;;;;;;-145.23;100.00;58621.06;5016165;28;20307;-52
2022/10/14 08:31:43;;;;;;;16.48;14.77;;;;;;;-145.23;100.00;58621.06;5018596;28;20697;-52
2022/10/14 08:34:10;;;;;;;20.55;15.77;;;;;;;-145.23;100.00;58621.06;5016484;28;20239;-52
2022/10/14 08:36:38;;;;;;;18.90;15.18;;;;;;;-145.23;100.00;58621.06;5007368;28;20739;-51
2022/10/14 08:39:06;;;;;;;16.10;14.40;;;;;;;-145.23;100.00;58621.06;5004314;28;20813;-52
2022/10/14 08:41:56;;;;;;;24.45;16.05;;;;;;;-145.23;100.00;58621.06;5011035;28;20720;-52
2022/10/14 08:44:25;;;;;;;22.73;15.00;;;;;;;-145.23;100.00;58621.06;5029705;28;20706;-52
2022/10/14 08:46:54;;;;;;;16.77;14.98;;;;;;;-145.23;100.00;58621.06;5018024;28;20315;-51
2022/10/14 08:49:25;;;;;;;17.55;14.07;;;;;;;-145.23;100.00;58621.06;5022530;28;20236;-52
2022/10/14 08:51:56;;;;;;;18.65;13.90;;;;;;;-145.23;100.00;58621.06;5013890;28;20232;-51
2022/10/14 08:54:30;;;;;;;18.42;14.82;;;;;;;-145.23;100.00;58621.06;5023027;28;20232;-51
2022/10/14 08:56:57;;;;;;;21.00;14.68;;;;;;;-145.23;100.00;58621.06;5022642;28;20235;-52
2022/10/14 08:59:24;;;;;;;17.30;14.20;;;;;;;-145.23;100.00;58621.06;5022549;28;20787;-51
2022/10/14 09:01:54;;;;;;;18.15;13.55;;;;;;;-145.23;100.00;58621.06;5011708;28;20233;-51
2022/10/14 09:04:21;;;;;;;15.95;14.25;;;;;;;-145.23;100.00;58621.06;4999920;28;20276;-52
2022/10/14 09:06:49;;;;;;;20.92;14.35;;;;;;;-145.23;100.00;58621.06;5010270;28;20247;-52
2022/10/14 09:09:20;;;;;;;17.70;12.73;;;;;;;-145.23;100.00;58621.06;4996466;28;20239;-51
2022/10/14 09:11:50;;;;;;;17.73;13.35;;;;;;;-145.23;100.00;58621.06;5001895;28;20244;-52
2022/10/14 09:14:21;;;;;;;20.42;14.98;;;;;;;-145.23;100.00;58621.06;4995749;28;20267;-51
2022/10/14 09:16:51;;;;;;;15.55;12.45;;;;;;;-145.23;100.00;58621.06;5030429;28;20243;-51
2022/10/14 09:19:25;;;;;;;17.10;13.32;;;;;;;-145.23;100.00;58621.06;5017382;28;20233;-51
2022/10/14 09:21:54;;;;;;;15.40;12.18;;;;;;;-145.23;100.00;58621.06;5018537;28;20305;-52
2022/10/14 09:24:23;;;;;;;16.77;13.52;;;;;;;-145.23;100.00;58621.06;5019922;28;20324;-52
2022/10/14 09:26:52;;;;;;;17.75;13.48;;;;;;;-145.23;100.00;58621.06;5016749;28;20237;-52
2022/10/14 09:29:25;;;;;;;12.85;11.48;;;;;;;-145.23;100.00;58621.06;5030301;28;20666;-52
2022/10/14 09:31:51;;;;;;;14.20;10.93;;;;;;;-145.23;100.00;58621.06;5024708;28;20228;-51
2022/10/14 09:34:20;;;;;;;13.80;12.35;;;;;;;-145.23;100.00;58621.06;5025124;28;20239;-51
2022/10/14 09:36:48;;;;;;;11.15;10.00;;;;;;;-145.23;100.00;58621.06;5032066;28;20259;-51
2022/10/14 09:39:16;;;;;;;12.60;9.52;;;;;;;-145.23;100.00;58621.06;5023702;28;20233;-52
2022/10/14 09:41:45;;;;;;;15.45;11.68;;;;;;;-145.23;100.00;58621.06;5032111;28;20228;-52
2022/10/14 09:44:20;;;;;;;15.90;12.00;;;;;;;-145.23;100.00;58621.06;5030128;28;20233;-51
2022/10/14 09:46:49;;;;;;;15.38;11.93;;;;;;;-145.23;100.00;58621.06;5027976;28;20239;-51
2022/10/14 09:49:17;;;;;;;12.43;10.15;;;;;;;-145.23;100.00;58621.06;5022154;28;20743;-52
2022/10/14 09:51:44;;;;;;;11.80;10.45;;;;;;;-145.23;100.00;58621.06;5024165;28;20240;-52
2022/10/14 09:54:22;;;;;;;14.90;11.45;;;;;;;-145.23;100.00;58621.06;5023041;28;20244;-52
2022/10/14 09:56:58;;;;;;;15.13;12.20;;;;;;;-145.23;100.00;58621.06;5017048;28;20241;-53
2022/10/14 09:59:25;;;;;;;15.40;11.18;;;;;;;-145.23;100.00;58621.06;5018812;28;20233;-52
2022/10/14 10:01:53;;;;;;;14.82;10.95;;;;;;;-145.23;100.00;58621.06;5033605;28;20232;-52
2022/10/14 10:04:33;;;;;;;14.57;11.52;;;;;;;-145.23;100.00;58621.06;5029918;28;20236;-52
2022/10/14 10:07:01;;;;;;;19.45;11.70;;;;;;;-145.23;100.00;58621.06;5019196;28;20249;-52
2022/10/14 10:09:28;;;;;;;18.13;12.70;;;;;;;-145.23;100.00;58621.06;5022021;28;20235;-53
2022/10/14 10:11:56;;;;;;;14.23;11.88;;;;;;;-145.23;100.00;58621.06;5027724;28;20340;-52
2022/10/14 10:14:24;;;;;;;16.38;12.95;;;;;;;-145.23;100.00;58621.06;5021922;28;20239;-53
2022/10/14 10:17:13;;;;;;;17.42;12.13;;;;;;;-145.23;100.00;58621.06;5001649;28;20236;-51
2022/10/14 10:19:41;;;;;;;14.23;11.43;;;;;;;-145.23;100.00;58621.06;5019366;28;20225;-52
2022/10/14 10:22:17;;;;;;;14.75;12.30;;;;;;;-145.23;100.00;58621.06;5009001;28;20233;-50
2022/10/14 10:24:44;;;;;;;13.85;11.95;;;;;;;-145.23;100.00;58621.06;5007693;28;20231;-51
2022/10/14 10:27:23;;;;;;;17.27;12.52;;;;;;;-145.23;100.00;58621.06;5016589;28;20327;-52
2022/10/14 10:29:50;;;;;;;14.73;13.00;;;;;;;-145.23;100.00;58621.06;5005094;28;20726;-51
2022/10/14 10:32:19;;;;;;;13.73;12.25;;;;;;;-145.23;100.00;58621.06;5014268;28;20248;-51
2022/10/14 10:35:02;;;;;;;18.83;13.15;;;;;;;-145.23;100.00;58621.06;5018832;28;20247;-51
2022/10/14 10:37:32;;;;;;;16.08;12.75;;;;;;;-145.23;100.00;58621.06;5027836;28;20275;-52
2022/10/14 10:40:09;;;;;;;18.83;12.35;;;;;;;-145.23;100.00;58621.06;5029276;28;20228;-51
2022/10/14 10:42:42;;;;;;;14.90;11.77;;;;;;;-145.23;100.00;58621.06;5028826;28;20224;-51
2022/10/14 10:45:15;;;;;;;13.70;11.95;;;;;;;-145.23;100.00;58621.06;5040618;28;20243;-52
2022/10/14 10:47:47;;;;;;;16.23;12.70;;;;;;;-145.23;100.00;58621.06;5037317;28;20233;-51
2022/10/14 10:50:26;;;;;;;12.63;11.20;;;;;;;-145.23;100.00;58621.06;5031993;28;20232;-51
2022/10/14 10:53:05;;;;;;;14.88;12.93;;;;;;;-145.23;100.00;58621.06;5019604;28;20714;-51
2022/10/14 10:55:37;;;;;;;18.52;13.90;;;;;;;-145.23;100.00;58621.06;5025468;28;20244;-51
2022/10/14 10:58:18;;;;;;;17.73;13.13;;;;;;;-145.23;100.00;58621.06;5033133;28;20605;-51
2022/10/14 11:00:49;;;;;;;13.73;11.93;;;;;;;-145.23;100.00;58621.06;5026130;28;20228;-52